Time;durP1;ratioP1;P1;durP2;ratioP2;P2;SDS_P1;SDS_P2;PMS_P1;PMS_P2;Temp;Humidity;BMP_temperature;BMP_pressure;BME280_temperature;BME280_humidity;BME280_pressure;Samples;Min_cycle;Max_cycle;Signal;HPM_P1;HPM_P2
2023/10/17 00:01:18;;;;;;;12.75;11.45;;;6.30;1.00;;;;;;5107540;27;21036;-71
2023/10/17 00:03:46;;;;;;;10.18;9.05;;;6.40;1.00;;;;;;5102862;27;20248;-70
2023/10/17 00:06:16;;;;;;;12.73;11.05;;;6.50;1.00;;;;;;5107708;27;20236;-71
2023/10/17 00:08:44;;;;;;;13.30;10.35;;;6.50;1.00;;;;;;5101637;27;20629;-71
2023/10/17 00:11:15;;;;;;;11.82;9.90;;;6.60;1.00;;;;;;5105148;27;20269;-71
2023/10/17 00:13:59;;;;;;;12.23;9.68;;;6.70;1.00;;;;;;5109656;27;20251;-71
2023/10/17 00:16:27;;;;;;;10.25;9.25;;;6.70;1.00;;;;;;5108407;27;20320;-71
2023/10/17 00:18:53;;;;;;;11.15;9.90;;;6.80;1.00;;;;;;5109378;27;20655;-71
2023/10/17 00:21:22;;;;;;;10.68;9.68;;;6.80;1.00;;;;;;5105800;27;20232;-73
2023/10/17 00:23:50;;;;;;;10.40;9.40;;;6.80;1.00;;;;;;5106167;27;20595;-71
2023/10/17 00:26:18;;;;;;;11.07;9.52;;;6.80;1.00;;;;;;5102121;27;20485;-72
2023/10/17 00:28:48;;;;;;;11.15;9.02;;;6.70;1.00;;;;;;5105553;27;20236;-75
2023/10/17 00:31:16;;;;;;;8.85;7.95;;;6.80;1.00;;;;;;5107452;27;20271;-76
2023/10/17 00:33:43;;;;;;;10.85;9.75;;;6.80;1.00;;;;;;5105893;27;20238;-75
2023/10/17 00:36:14;;;;;;;10.93;9.13;;;6.90;1.00;;;;;;5105482;27;20308;-78
2023/10/17 00:38:43;;;;;;;10.27;9.18;;;6.90;1.00;;;;;;5110283;27;20631;-76
2023/10/17 00:41:16;;;;;;;9.55;8.55;;;6.80;1.00;;;;;;5107957;27;20233;-76
2023/10/17 00:43:44;;;;;;;10.20;9.20;;;6.80;1.00;;;;;;5103976;27;20314;-73
2023/10/17 00:46:12;;;;;;;10.20;9.15;;;6.80;1.00;;;;;;5107936;27;21908;-73
2023/10/17 00:48:39;;;;;;;11.35;10.13;;;6.80;1.00;;;;;;5107637;27;20251;-75
2023/10/17 00:51:10;;;;;;;10.50;9.35;;;6.80;1.00;;;;;;5110120;27;20354;-75
2023/10/17 00:53:40;;;;;;;10.27;9.27;;;6.70;1.00;;;;;;5108282;27;20231;-74
2023/10/17 00:56:08;;;;;;;11.82;10.55;;;6.70;1.00;;;;;;5106602;27;20249;-74
2023/10/17 00:58:35;;;;;;;12.80;11.43;;;6.70;1.00;;;;;;5109273;27;20278;-75
2023/10/17 01:01:14;;;;;;;12.13;10.90;;;6.60;1.00;;;;;;5108529;27;20347;-76
2023/10/17 01:03:45;;;;;;;12.63;11.32;;;6.70;1.00;;;;;;5106071;27;20326;-75
2023/10/17 01:06:23;;;;;;;13.63;12.30;;;6.70;1.00;;;;;;5106473;27;20639;-76
2023/10/17 01:08:51;;;;;;;14.10;12.07;;;6.70;1.00;;;;;;5091878;27;20308;-76
2023/10/17 01:11:21;;;;;;;19.48;12.93;;;6.80;1.00;;;;;;5105430;27;20518;-75
2023/10/17 01:13:51;;;;;;;14.40;13.00;;;6.80;1.00;;;;;;5099823;27;20289;-74
2023/10/17 01:16:18;;;;;;;12.98;11.52;;;6.80;1.00;;;;;;5100641;27;20249;-73
2023/10/17 01:18:47;;;;;;;12.43;11.23;;;6.80;1.00;;;;;;5097364;27;21123;-75
2023/10/17 01:21:17;;;;;;;14.07;12.63;;;6.80;1.00;;;;;;5103702;27;20263;-74
2023/10/17 01:23:45;;;;;;;13.93;11.82;;;6.80;1.00;;;;;;5084805;27;20319;-73
2023/10/17 01:26:20;;;;;;;12.60;11.40;;;6.90;1.00;;;;;;5109094;27;21091;-74
2023/10/17 01:28:48;;;;;;;12.50;11.25;;;6.90;1.00;;;;;;5108513;27;20240;-75
2023/10/17 01:31:16;;;;;;;12.60;11.38;;;6.90;1.00;;;;;;5110318;27;20320;-74
2023/10/17 01:33:44;;;;;;;13.27;12.18;;;7.00;1.00;;;;;;5111651;27;20239;-74
2023/10/17 01:36:12;;;;;;;12.38;10.65;;;6.90;1.00;;;;;;5106499;27;20787;-74
2023/10/17 01:38:42;;;;;;;14.10;11.57;;;6.90;1.00;;;;;;5103418;27;20246;-74
2023/10/17 01:41:10;;;;;;;13.02;11.27;;;7.00;1.00;;;;;;5105418;27;20236;-76
2023/10/17 01:43:40;;;;;;;11.48;10.45;;;7.10;1.00;;;;;;5105023;27;20251;-76
2023/10/17 01:46:09;;;;;;;12.68;11.32;;;7.10;1.00;;;;;;5106239;27;20245;-76
2023/10/17 01:48:36;;;;;;;12.77;11.27;;;7.10;1.00;;;;;;5103712;27;21083;-78
2023/10/17 01:51:07;;;;;;;12.40;11.20;;;7.10;1.00;;;;;;5107062;27;21058;-74
2023/10/17 01:53:35;;;;;;;12.90;11.45;;;7.10;1.00;;;;;;5108873;27;20239;-77
2023/10/17 01:56:13;;;;;;;11.40;10.40;;;7.10;1.00;;;;;;5107494;27;20590;-75
2023/10/17 01:58:45;;;;;;;10.82;9.57;;;7.10;1.00;;;;;;5104922;27;20512;-77
2023/10/17 02:01:14;;;;;;;11.88;10.75;;;7.10;1.00;;;;;;5107002;27;20254;-76
2023/10/17 02:03:41;;;;;;;11.27;10.27;;;7.10;1.00;;;;;;5103969;27;20293;-76
2023/10/17 02:06:15;;;;;;;11.13;10.02;;;7.10;1.00;;;;;;5110912;27;20258;-78
2023/10/17 02:08:42;;;;;;;10.25;9.20;;;7.10;1.00;;;;;;5106228;27;20832;-74
2023/10/17 02:11:14;;;;;;;11.80;10.57;;;7.10;1.00;;;;;;5107781;27;20262;-75
2023/10/17 02:13:45;;;;;;;9.82;8.60;;;7.10;1.00;;;;;;5102858;27;20747;-75
2023/10/17 02:16:13;;;;;;;11.38;10.35;;;7.10;1.00;;;;;;5109103;27;20236;-75
2023/10/17 02:18:40;;;;;;;11.15;10.05;;;7.00;1.00;;;;;;5107687;27;20241;-75
2023/10/17 02:21:07;;;;;;;9.75;8.80;;;7.00;1.00;;;;;;5103178;27;20294;-75
2023/10/17 02:23:48;;;;;;;10.27;9.17;;;7.00;1.00;;;;;;5108015;27;20243;-75
2023/10/17 02:26:21;;;;;;;11.20;10.07;;;7.00;1.00;;;;;;5107355;27;20821;-75
2023/10/17 02:28:50;;;;;;;13.27;10.30;;;6.90;1.00;;;;;;5105384;27;20236;-76
2023/10/17 02:31:22;;;;;;;13.40;10.07;;;6.90;1.00;;;;;;5106772;27;20238;-75
2023/10/17 02:33:49;;;;;;;10.75;9.75;;;7.00;1.00;;;;;;5108279;27;20236;-77
2023/10/17 02:36:17;;;;;;;11.02;9.98;;;6.90;1.00;;;;;;5107519;27;20430;-77
2023/10/17 02:38:44;;;;;;;12.00;10.15;;;7.00;1.00;;;;;;5106750;27;20338;-75
2023/10/17 02:41:18;;;;;;;12.43;11.10;;;7.10;1.00;;;;;;5107750;27;20246;-76
2023/10/17 02:43:45;;;;;;;10.70;9.65;;;7.10;1.00;;;;;;5102511;27;20489;-75
2023/10/17 02:46:14;;;;;;;11.18;10.02;;;7.10;1.00;;;;;;5107318;27;20240;-77
2023/10/17 02:48:42;;;;;;;11.48;10.43;;;7.10;1.00;;;;;;5104604;27;20242;-74
2023/10/17 02:53:56;;;;;;;13.13;9.77;;;7.00;1.00;;;;;;5102129;27;20238;-75
2023/10/17 02:56:23;;;;;;;11.50;10.05;;;6.90;1.00;;;;;;5105376;27;20255;-76
2023/10/17 02:58:59;;;;;;;10.95;9.90;;;7.00;1.00;;;;;;5104399;27;20322;-75
2023/10/17 03:01:29;;;;;;;11.13;9.88;;;7.00;1.00;;;;;;5105580;27;20233;-75
2023/10/17 03:03:56;;;;;;;12.05;10.70;;;7.10;1.00;;;;;;5106577;27;20239;-75
2023/10/17 03:06:23;;;;;;;11.60;10.40;;;7.10;1.00;;;;;;5107915;27;20772;-76
2023/10/17 03:08:51;;;;;;;11.50;10.40;;;7.10;1.00;;;;;;5105993;27;20810;-75
2023/10/17 03:11:35;;;;;;;10.55;9.55;;;7.20;1.00;;;;;;5103712;27;20304;-75
2023/10/17 03:14:10;;;;;;;10.07;9.05;;;7.10;1.00;;;;;;5106058;27;20231;-75
2023/10/17 03:16:40;;;;;;;10.88;9.77;;;7.20;1.00;;;;;;5103021;27;21083;-76
2023/10/17 03:19:11;;;;;;;11.88;10.02;;;7.30;1.00;;;;;;5103899;27;20328;-75
2023/10/17 03:21:43;;;;;;;10.83;9.30;;;7.30;1.00;;;;;;5104701;27;20641;-75
2023/10/17 03:24:09;;;;;;;11.15;9.93;;;7.50;1.00;;;;;;5110213;27;20468;-76
2023/10/17 03:26:40;;;;;;;11.18;10.10;;;7.50;1.00;;;;;;5103542;27;21125;-75
2023/10/17 03:29:13;;;;;;;10.70;9.70;;;7.40;1.00;;;;;;5104630;27;20246;-75
2023/10/17 03:31:45;;;;;;;11.33;10.20;;;7.30;1.00;;;;;;5088599;27;20462;-76
2023/10/17 03:34:12;;;;;;;12.05;10.10;;;7.30;1.00;;;;;;5103944;27;20470;-75
2023/10/17 03:36:49;;;;;;;11.55;10.50;;;7.40;1.00;;;;;;5102043;27;20720;-75
2023/10/17 03:39:20;;;;;;;11.55;10.07;;;7.50;1.00;;;;;;5112029;27;20979;-75
2023/10/17 03:41:47;;;;;;;14.20;10.30;;;7.50;1.00;;;;;;5108948;27;20710;-75
2023/10/17 03:44:15;;;;;;;11.13;10.03;;;7.50;1.00;;;;;;5104981;27;21957;-75
2023/10/17 03:46:48;;;;;;;11.40;10.20;;;7.60;1.00;;;;;;5107230;27;20462;-74
2023/10/17 03:49:18;;;;;;;12.02;10.65;;;7.60;1.00;;;;;;5109234;27;20485;-75
2023/10/17 03:51:51;;;;;;;12.32;10.40;;;7.50;1.00;;;;;;5109061;27;20237;-75
2023/10/17 03:54:22;;;;;;;11.27;10.15;;;7.60;1.00;;;;;;5096940;27;20293;-75
2023/10/17 03:56:56;;;;;;;11.80;10.33;;;7.60;1.00;;;;;;5112852;27;20272;-74
2023/10/17 03:59:37;;;;;;;11.20;10.20;;;7.60;1.00;;;;;;5105578;27;20472;-75
2023/10/17 04:02:12;;;;;;;11.88;10.77;;;7.60;1.00;;;;;;5114068;27;20536;-75
2023/10/17 04:04:47;;;;;;;14.10;10.75;;;7.70;1.00;;;;;;5106734;27;20860;-74
2023/10/17 04:07:14;;;;;;;12.63;10.40;;;7.60;1.00;;;;;;5110513;27;20235;-74
2023/10/17 04:09:52;;;;;;;14.75;11.13;;;7.50;1.00;;;;;;5104956;27;20450;-74
2023/10/17 04:12:21;;;;;;;16.10;11.13;;;7.60;1.00;;;;;;5105860;27;20756;-77
2023/10/17 04:14:57;;;;;;;12.60;11.30;;;7.60;1.00;;;;;;5109232;27;20513;-76
2023/10/17 04:17:29;;;;;;;11.85;10.65;;;7.60;1.00;;;;;;5111164;27;20462;-76
2023/10/17 04:20:10;;;;;;;11.93;10.70;;;7.50;1.00;;;;;;5111700;27;20238;-76
2023/10/17 04:22:38;;;;;;;12.10;10.35;;;7.40;1.00;;;;;;5108272;27;20327;-73
2023/10/17 04:25:19;;;;;;;9.98;8.95;;;7.40;1.00;;;;;;5110007;27;20283;-75
2023/10/17 04:27:51;;;;;;;12.50;9.10;;;7.50;1.00;;;;;;5106808;27;20349;-75
2023/10/17 04:30:22;;;;;;;10.82;9.82;;;7.60;1.00;;;;;;5106950;27;20305;-75
2023/10/17 04:32:52;;;;;;;10.65;9.68;;;7.70;1.00;;;;;;5086624;28;20288;-75
2023/10/17 04:35:20;;;;;;;11.18;10.02;;;7.60;1.00;;;;;;5098371;27;20239;-74
2023/10/17 04:38:09;;;;;;;11.27;10.00;;;7.60;1.00;;;;;;5111064;27;20754;-75
2023/10/17 04:40:42;;;;;;;10.80;9.30;;;7.70;1.00;;;;;;5108995;27;20536;-76
2023/10/17 04:45:57;;;;;;;11.50;10.40;;;7.90;1.00;;;;;;5085429;28;20498;-75
2023/10/17 04:48:32;;;;;;;13.40;10.80;;;7.80;1.00;;;;;;5107945;27;20524;-75
2023/10/17 04:51:12;;;;;;;11.50;9.98;;;7.90;1.00;;;;;;5107270;27;20240;-76
2023/10/17 04:53:40;;;;;;;12.15;10.95;;;7.90;1.00;;;;;;5107167;27;20242;-76
2023/10/17 04:56:11;;;;;;;13.77;11.17;;;7.90;1.00;;;;;;5110237;27;20241;-76
2023/10/17 04:58:42;;;;;;;12.80;10.95;;;7.90;1.00;;;;;;5104815;27;20847;-75
2023/10/17 05:01:34;;;;;;;11.15;10.05;;;7.90;1.00;;;;;;5107725;27;20235;-76
2023/10/17 05:04:13;;;;;;;10.43;9.35;;;7.80;1.00;;;;;;5110985;27;20260;-76
2023/10/17 05:07:07;;;;;;;12.20;9.88;;;7.70;1.00;;;;;;5110027;27;20294;-75
2023/10/17 06:18:26;;;;;;;9.70;8.80;;;8.70;1.00;;;;;;5111123;27;20570;-70
2023/10/17 06:21:18;;;;;;;10.70;9.20;;;8.80;1.00;;;;;;5108293;27;20443;-70
2023/10/17 06:26:59;;;;;;;10.80;9.80;;;9.00;1.00;;;;;;5103005;27;20438;-71
2023/10/17 06:32:48;;;;;;;10.17;9.23;;;8.80;1.00;;;;;;5104141;27;20461;-71
2023/10/17 06:35:13;;;;;;;20.10;10.07;;;8.90;1.00;;;;;;5094468;27;20549;-72
2023/10/17 06:37:42;;;;;;;13.33;8.60;;;8.90;1.00;;;;;;5101089;27;21265;-71
2023/10/17 06:40:15;;;;;;;9.63;8.57;;;9.00;1.00;;;;;;5104734;27;20953;-70
2023/10/17 06:42:49;;;;;;;10.90;8.60;;;9.00;1.00;;;;;;5105799;27;20992;-70
2023/10/17 06:45:18;;;;;;;11.83;8.87;;;9.10;1.00;;;;;;5104649;27;20520;-71
2023/10/17 06:47:48;;;;;;;12.40;8.90;;;9.10;1.00;;;;;;5100989;27;20444;-70
2023/10/17 06:50:20;;;;;;;10.20;9.03;;;9.20;1.00;;;;;;5105158;27;20995;-70
2023/10/17 06:53:01;;;;;;;11.70;9.20;;;9.30;1.00;;;;;;5101005;27;20461;-71
2023/10/17 06:55:34;;;;;;;9.27;8.33;;;9.40;1.00;;;;;;5106763;27;20493;-71
2023/10/17 06:58:09;;;;;;;11.77;8.83;;;9.40;1.00;;;;;;5103996;27;20966;-71
2023/10/17 07:00:43;;;;;;;22.60;15.60;;;9.50;1.00;;;;;;5102597;27;20451;-70
2023/10/17 07:03:36;;;;;;;11.33;9.10;;;9.70;1.00;;;;;;5104448;27;20529;-74
2023/10/17 07:06:11;;;;;;;10.03;8.43;;;9.60;1.00;;;;;;5101709;27;20519;-73
2023/10/17 07:08:38;;;;;;;11.60;8.70;;;9.70;1.00;;;;;;5105787;27;20451;-72
2023/10/17 07:11:09;;;;;;;9.37;8.43;;;9.70;1.00;;;;;;5107019;27;20999;-72
2023/10/17 07:14:21;;;;;;;11.30;9.20;;;9.90;1.00;;;;;;5099056;27;20477;-74
2023/10/17 07:16:57;;;;;;;9.90;8.90;;;9.90;1.00;;;;;;5103299;27;20461;-70
2023/10/17 07:22:11;;;;;;;10.63;9.13;;;10.00;1.00;;;;;;5102851;27;20453;-72
2023/10/17 07:24:44;;;;;;;12.00;9.77;;;10.10;1.00;;;;;;5104771;27;20473;-73
2023/10/17 07:30:03;;;;;;;10.53;7.90;;;10.30;1.00;;;;;;5102373;27;20422;-78
2023/10/17 07:32:44;;;;;;;11.00;8.80;;;10.40;1.00;;;;;;5103192;27;20493;-76
2023/10/17 07:35:15;;;;;;;9.57;8.67;;;10.40;1.00;;;;;;5102583;27;20459;-78
2023/10/17 07:37:53;;;;;;;13.80;10.00;;;10.40;1.00;;;;;;5092484;27;20487;-76
2023/10/17 07:40:41;;;;;;;12.37;9.50;;;10.50;1.00;;;;;;5088522;28;20541;-77
2023/10/17 07:43:08;;;;;;;16.47;8.90;;;10.70;1.00;;;;;;5105903;27;21351;-79
2023/10/17 07:45:40;;;;;;;9.77;8.20;;;10.70;1.00;;;;;;5106442;27;20473;-77
2023/10/17 07:48:21;;;;;;;11.57;8.90;;;10.70;1.00;;;;;;5106380;27;20458;-77
2023/10/17 07:50:50;;;;;;;10.80;7.93;;;10.90;1.00;;;;;;5100118;27;20954;-77
2023/10/17 07:53:20;;;;;;;10.00;8.90;;;10.90;1.00;;;;;;5099658;27;20459;-75
2023/10/17 07:55:48;;;;;;;11.73;8.77;;;10.90;1.00;;;;;;5103132;27;20968;-74
2023/10/17 07:58:35;;;;;;;14.87;9.47;;;11.10;1.00;;;;;;5107065;27;20527;-72
2023/10/17 08:01:07;;;;;;;16.70;11.90;;;11.10;1.00;;;;;;5107048;27;20829;-75
2023/10/17 08:03:39;;;;;;;7.50;6.80;;;11.20;1.00;;;;;;5103414;27;20469;-77
2023/10/17 08:06:07;;;;;;;8.93;7.00;;;11.30;1.00;;;;;;5103356;27;20499;-79
2023/10/17 08:08:42;;;;;;;10.87;7.03;;;11.50;1.00;;;;;;5105935;27;20474;-77
2023/10/17 08:11:25;;;;;;;8.90;7.00;;;11.50;1.00;;;;;;5104015;27;20454;-76
2023/10/17 08:13:52;;;;;;;8.77;6.60;;;11.60;1.00;;;;;;5104345;27;20459;-77
2023/10/17 08:16:24;;;;;;;8.80;7.63;;;11.70;1.00;;;;;;5104488;27;20458;-77
2023/10/17 08:18:58;;;;;;;6.53;5.90;;;11.70;1.00;;;;;;5102662;27;20470;-77
2023/10/17 08:21:35;;;;;;;7.50;5.70;;;11.70;1.00;;;;;;5104734;27;20544;-75
2023/10/17 08:24:05;;;;;;;6.50;5.80;;;11.80;1.00;;;;;;5104169;27;20461;-78
2023/10/17 08:26:40;;;;;;;6.90;5.23;;;12.00;1.00;;;;;;5107805;27;20506;-77
2023/10/17 08:29:08;;;;;;;9.47;4.90;;;12.10;1.00;;;;;;5107596;27;20450;-77
2023/10/17 08:31:43;;;;;;;6.07;5.17;;;12.10;1.00;;;;;;5102679;27;20434;-76
2023/10/17 08:34:12;;;;;;;8.07;5.00;;;12.10;1.00;;;;;;5103483;27;20425;-76
2023/10/17 08:36:47;;;;;;;7.40;5.50;;;12.10;1.00;;;;;;5107479;27;20455;-76
2023/10/17 08:42:12;;;;;;;5.60;5.10;;;12.90;1.00;;;;;;5084193;27;20454;-74
2023/10/17 08:44:42;;;;;;;8.20;4.90;;;13.00;1.00;;;;;;5106939;27;20525;-74
2023/10/17 08:47:11;;;;;;;6.17;5.57;;;13.00;1.00;;;;;;5101743;27;20452;-74
2023/10/17 08:49:39;;;;;;;7.23;6.57;;;13.00;1.00;;;;;;5106022;27;20967;-73
2023/10/17 08:52:06;;;;;;;8.10;6.10;;;13.10;1.00;;;;;;5105274;27;20461;-75
2023/10/17 08:54:33;;;;;;;9.40;6.90;;;12.90;1.00;;;;;;5108516;27;20527;-74
2023/10/17 08:57:03;;;;;;;7.67;5.90;;;13.10;1.00;;;;;;5105731;27;20465;-75
2023/10/17 08:59:51;;;;;;;8.60;5.40;;;13.10;1.00;;;;;;5109077;27;20467;-73
2023/10/17 09:02:29;;;;;;;3.93;3.60;;;13.20;1.00;;;;;;5107077;27;20462;-73
2023/10/17 09:05:00;;;;;;;6.03;5.13;;;13.10;1.00;;;;;;5105408;27;21001;-73
2023/10/17 09:07:32;;;;;;;6.27;4.03;;;13.60;1.00;;;;;;5107515;27;20985;-73
2023/10/17 09:10:04;;;;;;;4.50;4.10;;;13.90;1.00;;;;;;5107987;27;20479;-73
2023/10/17 09:12:42;;;;;;;4.63;2.60;;;14.00;1.00;;;;;;5101566;27;20834;-75
2023/10/17 09:15:27;;;;;;;6.40;3.50;;;14.00;1.00;;;;;;5108415;27;20454;-74
2023/10/17 09:18:07;;;;;;;4.23;3.70;;;13.80;1.00;;;;;;5106418;27;20540;-73
2023/10/17 09:20:39;;;;;;;8.63;4.20;;;13.60;1.00;;;;;;5108638;27;20972;-74
2023/10/17 09:23:22;;;;;;;5.50;3.07;;;13.70;1.00;;;;;;5108448;27;20441;-74
2023/10/17 09:25:54;;;;;;;3.40;2.33;;;13.70;1.00;;;;;;5086141;28;20942;-75
2023/10/17 09:28:24;;;;;;;4.60;2.60;;;13.90;1.00;;;;;;5087885;28;20535;-74
2023/10/17 09:30:59;;;;;;;6.57;3.27;;;13.90;1.00;;;;;;5110114;27;20460;-73
2023/10/17 09:33:31;;;;;;;4.43;4.00;;;14.00;1.00;;;;;;5107455;27;20454;-73
2023/10/17 09:36:04;;;;;;;1.73;1.50;;;14.10;1.00;;;;;;5094375;27;21082;-74
2023/10/17 09:38:32;;;;;;;3.53;1.80;;;14.20;1.00;;;;;;5106328;27;20452;-72
2023/10/17 09:41:00;;;;;;;2.17;1.97;;;14.20;1.00;;;;;;5106831;27;20524;-73
2023/10/17 09:43:27;;;;;;;2.63;1.50;;;14.00;1.00;;;;;;5109187;27;20470;-74
2023/10/17 09:46:02;;;;;;;2.90;2.10;;;13.90;1.00;;;;;;5109934;27;21018;-74
2023/10/17 09:48:34;;;;;;;4.00;2.40;;;13.80;1.00;;;;;;5103049;27;20455;-73
2023/10/17 09:51:02;;;;;;;2.10;1.90;;;13.70;1.00;;;;;;5104606;27;20474;-72
2023/10/17 09:53:33;;;;;;;3.73;2.17;;;13.60;1.00;;;;;;5106842;27;20460;-72
2023/10/17 09:56:04;;;;;;;2.50;1.53;;;13.50;1.00;;;;;;5107184;27;20462;-72
2023/10/17 09:58:34;;;;;;;3.63;1.90;;;13.50;1.00;;;;;;5107573;27;20491;-71
2023/10/17 10:01:07;;;;;;;3.20;1.70;;;13.40;1.00;;;;;;5105001;27;20482;-71
2023/10/17 10:03:38;;;;;;;2.50;2.30;;;13.30;1.00;;;;;;5108324;27;20459;-72
2023/10/17 10:06:25;;;;;;;2.20;1.63;;;13.20;1.00;;;;;;5107251;27;20466;-72
2023/10/17 10:08:56;;;;;;;3.63;2.30;;;13.20;1.00;;;;;;5106683;27;20953;-72
2023/10/17 10:11:55;;;;;;;3.43;1.60;;;13.00;1.00;;;;;;5099965;27;20570;-72
2023/10/17 10:14:42;;;;;;;3.10;1.50;;;12.80;1.00;;;;;;5099872;27;20464;-72
2023/10/17 10:17:10;;;;;;;2.83;1.80;;;12.90;1.00;;;;;;5105488;27;20474;-72
2023/10/17 10:20:04;;;;;;;3.00;1.93;;;12.90;1.00;;;;;;5108769;27;20829;-71
2023/10/17 10:22:50;;;;;;;2.27;1.83;;;12.90;1.00;;;;;;5085245;27;20492;-73
2023/10/17 10:25:17;;;;;;;4.30;2.30;;;13.00;1.00;;;;;;5107048;27;20569;-73
2023/10/17 10:27:46;;;;;;;2.80;1.97;;;12.90;1.00;;;;;;5108527;27;20459;-72
2023/10/17 10:30:32;;;;;;;2.47;1.70;;;13.00;1.00;;;;;;5108505;27;20470;-72
2023/10/17 10:33:00;;;;;;;9.90;4.73;;;13.10;1.00;;;;;;5091711;27;20972;-72
2023/10/17 10:35:33;;;;;;;1.97;1.70;;;13.10;1.00;;;;;;5106349;27;20483;-72
2023/10/17 10:38:00;;;;;;;2.90;1.63;;;13.10;1.00;;;;;;5109447;27;20463;-73
2023/10/17 10:40:30;;;;;;;6.73;5.63;;;13.10;1.00;;;;;;5105848;27;21013;-71
2023/10/17 10:42:59;;;;;;;1.67;1.50;;;13.10;1.00;;;;;;5106020;27;21053;-71
2023/10/17 10:45:35;;;;;;;2.60;1.20;;;13.20;1.00;;;;;;5107711;27;21149;-72
2023/10/17 10:48:04;;;;;;;5.80;4.00;;;13.10;1.00;;;;;;5103556;27;20486;-72
2023/10/17 10:50:34;;;;;;;2.57;1.67;;;13.10;1.00;;;;;;5105690;27;21377;-73
2023/10/17 10:53:03;;;;;;;5.30;2.27;;;13.10;1.00;;;;;;5108686;27;20554;-71
2023/10/17 10:55:31;;;;;;;2.50;1.83;;;13.20;1.00;;;;;;5094955;27;20450;-71
2023/10/17 10:58:03;;;;;;;2.47;1.40;;;13.20;1.00;;;;;;5107365;27;20959;-75
2023/10/17 11:00:31;;;;;;;3.60;1.80;;;13.20;1.00;;;;;;5104017;27;20575;-75
2023/10/17 11:02:59;;;;;;;2.50;1.70;;;13.30;1.00;;;;;;5105592;27;20487;-75
2023/10/17 11:05:26;;;;;;;2.00;1.73;;;13.30;1.00;;;;;;5101602;27;21779;-75
2023/10/17 11:08:02;;;;;;;2.27;1.30;;;13.10;1.00;;;;;;5102522;27;20542;-75
2023/10/17 11:10:31;;;;;;;4.77;2.60;;;13.00;1.00;;;;;;5105947;27;20456;-75
2023/10/17 11:12:58;;;;;;;2.10;1.77;;;13.20;1.00;;;;;;5105317;27;21256;-74
2023/10/17 11:15:28;;;;;;;2.60;1.70;;;13.30;1.00;;;;;;5106604;27;20859;-77
2023/10/17 11:18:06;;;;;;;2.33;1.90;;;13.30;1.00;;;;;;5111661;27;20468;-74
2023/10/17 11:20:33;;;;;;;2.00;1.60;;;13.30;1.00;;;;;;5102322;27;20467;-75
2023/10/17 11:23:04;;;;;;;2.07;1.70;;;13.20;1.00;;;;;;5103970;27;20467;-74
2023/10/17 11:25:34;;;;;;;3.97;2.00;;;13.20;1.00;;;;;;5109453;27;20508;-75
2023/10/17 11:28:06;;;;;;;2.73;1.53;;;13.20;1.00;;;;;;5099604;27;20458;-74
2023/10/17 11:30:40;;;;;;;2.43;1.33;;;13.20;1.00;;;;;;5101673;27;20454;-75
2023/10/17 11:33:10;;;;;;;5.37;1.70;;;13.20;1.00;;;;;;5100703;27;20978;-76
2023/10/17 11:35:38;;;;;;;3.73;2.20;;;13.30;1.00;;;;;;5101975;27;20952;-74
2023/10/17 11:38:33;;;;;;;3.17;2.30;;;13.30;1.00;;;;;;5108861;27;20576;-75
2023/10/17 11:41:01;;;;;;;2.80;2.40;;;13.30;1.00;;;;;;5101601;27;20528;-74
2023/10/17 11:43:33;;;;;;;7.10;5.63;;;13.30;1.00;;;;;;5103880;27;20547;-74
2023/10/17 11:46:01;;;;;;;3.67;1.80;;;13.30;1.00;;;;;;5107546;27;20455;-74
2023/10/17 11:48:31;;;;;;;3.87;1.57;;;13.30;1.00;;;;;;5107959;27;20472;-75
2023/10/17 11:51:12;;;;;;;2.77;1.33;;;13.40;1.00;;;;;;5105737;27;21201;-75
2023/10/17 11:54:03;;;;;;;2.70;1.53;;;13.40;1.00;;;;;;5106466;27;20489;-75
2023/10/17 11:56:30;;;;;;;2.00;1.60;;;13.30;1.00;;;;;;5105374;27;20519;-75
2023/10/17 11:58:58;;;;;;;2.90;1.87;;;13.40;1.00;;;;;;5106671;27;20585;-75
2023/10/17 12:01:25;;;;;;;2.83;1.60;;;13.50;1.00;;;;;;5107439;27;20537;-74
2023/10/17 12:03:56;;;;;;;2.60;1.53;;;13.50;1.00;;;;;;5107340;27;20467;-73
2023/10/17 12:06:26;;;;;;;4.13;1.60;;;13.50;1.00;;;;;;5109071;27;20932;-74
2023/10/17 12:08:55;;;;;;;1.50;1.40;;;13.40;1.00;;;;;;5113371;27;20957;-71
2023/10/17 12:11:24;;;;;;;2.20;1.43;;;13.50;1.00;;;;;;5111524;27;20547;-71
2023/10/17 12:13:52;;;;;;;4.07;2.07;;;13.60;1.00;;;;;;5097575;27;20468;-70
2023/10/17 12:16:23;;;;;;;4.97;3.60;;;13.60;1.00;;;;;;5094218;27;20443;-71
2023/10/17 12:18:51;;;;;;;2.17;1.83;;;13.40;1.00;;;;;;5110739;27;20467;-70
2023/10/17 12:21:18;;;;;;;2.17;1.60;;;13.40;1.00;;;;;;5108920;27;20460;-70
2023/10/17 12:23:45;;;;;;;1.70;1.30;;;13.20;1.00;;;;;;5105699;27;20455;-72
2023/10/17 12:26:26;;;;;;;2.53;1.93;;;13.30;1.00;;;;;;5110599;27;20464;-72
2023/10/17 12:28:54;;;;;;;3.47;1.97;;;13.40;1.00;;;;;;5107806;27;20459;-71
2023/10/17 12:31:23;;;;;;;3.23;1.17;;;13.50;1.00;;;;;;5106712;27;20810;-73
2023/10/17 12:33:50;;;;;;;2.57;1.67;;;13.50;1.00;;;;;;5111096;27;20547;-77
2023/10/17 12:36:19;;;;;;;2.53;1.50;;;13.50;1.00;;;;;;5110825;27;20482;-69
2023/10/17 12:38:49;;;;;;;4.30;2.10;;;13.50;1.00;;;;;;5108386;27;21089;-73
2023/10/17 12:41:17;;;;;;;3.53;1.50;;;13.40;1.00;;;;;;5103905;27;20575;-72
2023/10/17 12:43:44;;;;;;;2.53;1.40;;;13.40;1.00;;;;;;5109447;27;20466;-81
2023/10/17 12:46:12;;;;;;;1.90;1.40;;;13.40;1.00;;;;;;5090937;27;20468;-69
2023/10/17 12:48:39;;;;;;;1.70;1.23;;;13.50;1.00;;;;;;5111241;27;20464;-70
2023/10/17 12:51:11;;;;;;;3.33;1.80;;;13.40;1.00;;;;;;5111055;27;20473;-72
2023/10/17 12:53:38;;;;;;;2.00;1.80;;;13.30;1.00;;;;;;5111891;27;21403;-72
2023/10/17 12:56:06;;;;;;;2.60;1.37;;;13.40;1.00;;;;;;5095052;27;21355;-71
2023/10/17 12:58:36;;;;;;;2.70;1.70;;;13.30;1.00;;;;;;5106739;27;20967;-72
2023/10/17 13:01:05;;;;;;;4.00;1.50;;;13.30;1.00;;;;;;5107736;27;20458;-71
2023/10/17 13:03:36;;;;;;;1.97;1.20;;;13.40;1.00;;;;;;5108470;27;20598;-71
2023/10/17 13:06:06;;;;;;;1.83;1.20;;;13.40;1.00;;;;;;5107444;27;20469;-70
2023/10/17 13:08:37;;;;;;;4.30;1.70;;;13.50;1.00;;;;;;5108357;27;20500;-71
2023/10/17 13:11:04;;;;;;;2.87;1.53;;;13.70;1.00;;;;;;5109662;27;20460;-75
2023/10/17 13:13:31;;;;;;;3.07;1.27;;;13.60;1.00;;;;;;5109868;27;20489;-71
2023/10/17 13:15:59;;;;;;;1.93;1.50;;;13.70;1.00;;;;;;5107134;27;20456;-70
2023/10/17 13:18:28;;;;;;;2.03;1.60;;;13.70;1.00;;;;;;5100544;27;20495;-71
2023/10/17 13:20:59;;;;;;;3.70;1.27;;;13.80;1.00;;;;;;5110105;27;20550;-72
2023/10/17 13:23:26;;;;;;;3.63;1.87;;;14.00;1.00;;;;;;5102209;27;20967;-72
2023/10/17 13:25:53;;;;;;;2.33;1.43;;;14.10;1.00;;;;;;5110362;27;20899;-74
2023/10/17 13:28:20;;;;;;;2.00;1.60;;;14.10;1.00;;;;;;5106710;27;21031;-72
2023/10/17 13:30:47;;;;;;;4.33;1.27;;;14.10;1.00;;;;;;5101225;27;20520;-72
2023/10/17 13:33:20;;;;;;;1.80;1.23;;;14.10;1.00;;;;;;5108820;27;20991;-71
2023/10/17 13:35:48;;;;;;;2.43;1.80;;;14.00;1.00;;;;;;5109177;27;20439;-72
2023/10/17 13:38:16;;;;;;;3.40;1.70;;;14.10;1.00;;;;;;5110410;27;20957;-75
2023/10/17 13:40:43;;;;;;;2.67;1.50;;;14.00;1.00;;;;;;5104963;27;20443;-75
2023/10/17 13:43:10;;;;;;;2.50;1.40;;;14.10;1.00;;;;;;5105224;27;20472;-73
2023/10/17 13:45:41;;;;;;;2.53;1.60;;;14.10;1.00;;;;;;5106316;27;20535;-72
2023/10/17 13:48:08;;;;;;;3.13;1.73;;;14.10;1.00;;;;;;5107837;27;20457;-73
2023/10/17 13:50:37;;;;;;;2.83;1.80;;;14.10;1.00;;;;;;5105727;27;20492;-71
2023/10/17 13:53:16;;;;;;;3.20;2.10;;;14.10;1.00;;;;;;5107489;27;20550;-73
2023/10/17 13:55:45;;;;;;;2.90;1.77;;;14.20;1.00;;;;;;5106181;27;20533;-73
2023/10/17 13:58:12;;;;;;;1.47;1.10;;;14.20;1.00;;;;;;5108406;27;20998;-72
2023/10/17 14:00:44;;;;;;;2.90;1.60;;;14.20;1.00;;;;;;5106594;27;20540;-73
2023/10/17 14:03:13;;;;;;;2.87;1.60;;;13.90;1.00;;;;;;5106790;27;20534;-74
2023/10/17 14:05:43;;;;;;;1.63;1.40;;;13.50;1.00;;;;;;5104598;27;20487;-72
2023/10/17 14:08:13;;;;;;;3.20;2.00;;;13.50;1.00;;;;;;5102316;27;20455;-72
2023/10/17 14:10:43;;;;;;;3.43;2.10;;;13.50;1.00;;;;;;5079755;27;20946;-73
2023/10/17 14:13:12;;;;;;;6.27;5.50;;;13.50;1.00;;;;;;5109103;27;20473;-72
2023/10/17 14:15:39;;;;;;;3.63;2.00;;;13.50;1.00;;;;;;5114081;27;20551;-72
2023/10/17 14:18:13;;;;;;;2.53;2.10;;;13.10;1.00;;;;;;5094086;27;20464;-74
2023/10/17 14:21:04;;;;;;;3.17;2.30;;;13.20;1.00;;;;;;5106274;27;20457;-75
2023/10/17 14:23:32;;;;;;;5.93;2.83;;;13.40;1.00;;;;;;5105457;27;20556;-72
2023/10/17 14:26:07;;;;;;;3.57;1.87;;;13.50;1.00;;;;;;5107818;27;20460;-76
2023/10/17 14:28:34;;;;;;;2.20;1.73;;;13.60;1.00;;;;;;5084663;27;20476;-73
2023/10/17 14:31:06;;;;;;;6.27;2.90;;;13.60;1.00;;;;;;5105404;27;20959;-72
2023/10/17 14:33:34;;;;;;;4.07;1.90;;;13.60;1.00;;;;;;5108229;27;20486;-72
2023/10/17 14:36:04;;;;;;;4.83;2.97;;;13.60;1.00;;;;;;5108459;27;20448;-73
2023/10/17 14:38:33;;;;;;;4.50;3.03;;;13.70;1.00;;;;;;5107690;27;20471;-74
2023/10/17 14:41:09;;;;;;;5.10;3.23;;;13.60;1.00;;;;;;5108760;27;20463;-72
2023/10/17 14:43:37;;;;;;;4.50;3.40;;;13.50;1.00;;;;;;5104214;27;20471;-77
2023/10/17 14:46:06;;;;;;;7.67;2.20;;;13.40;1.00;;;;;;5105526;27;20447;-75
2023/10/17 14:48:36;;;;;;;3.63;1.83;;;13.40;1.00;;;;;;5111317;27;20450;-73